Algoa — ZR4311 — position and weather

sailwx.info

Track history (hours):
 
Tides and Currents Weather Stations Pressure Air Temp Water Temp Dewpoint Dewpoint Depression Visibility Wind Speed Wind Dir Waves Ship Positions

Oceanographic research ship Algoa (South Africa)

Detailed information on ship capabilities available from University of Delaware's Ocean Information Center.

Last reported at 2018-Dec-12 16:00 UTC. Time now 2018-Dec-12 16:08 UTC.
Position S 33°54' E 018°26'.

Type: Other ship. MMSI: 599996424.

Date/timePositionNaut miles runAvg speedWind from/ knotsBaromVisibWave heightAir tempDewpointWater temp
2018-Dec-12 16:00S 33°54' E 018°26'0 0.0
2018-Dec-12 15:30S 33°54' E 018°26'0 0.6
2018-Dec-12 15:00S 33°54' E 018°26'3 6.3
2018-Dec-12 14:31S 33°54' E 018°22'5 9.6
2018-Dec-12 13:57S 33°58' E 018°19'4 9.6
2018-Dec-12 13:30S 34°02' E 018°16'510.0
2018-Dec-12 13:00S 34°05' E 018°11'27 2.5
2018-Dec-12 02:04S 34°17' E 017°42'1 4.3
2018-Dec-12 01:51S 34°16' E 017°43'3 3.9
2018-Dec-12 00:57S 34°13' E 017°45'3 3.7
2018-Dec-12 00:14S 34°12' E 017°48'1 3.8
2018-Dec-11 23:58S 34°11' E 017°48'2 3.7
2018-Dec-11 23:30S 34°10' E 017°50'2 4.2
2018-Dec-11 23:00S 34°08' E 017°51'1 2.8
2018-Dec-11 22:30S 34°07' E 017°52'2 3.4
2018-Dec-11 22:00S 34°05' E 017°54'2 4.6
2018-Dec-11 21:30S 34°04' E 017°55'2 4.5
2018-Dec-11 21:00S 34°02' E 017°57'2 4.0
2018-Dec-11 20:30S 34°00' E 017°58'2 4.3
2018-Dec-11 20:00S 33°59' E 018°00'2 4.3
2018-Dec-11 19:30S 33°57' E 018°02'8 5.1
2018-Dec-11 17:52S 33°50' E 018°08'7 6.5
2018-Dec-11 16:51S 33°46' E 018°14'2 6.3
2018-Dec-11 16:29S 33°45' E 018°16'4 7.3
2018-Dec-11 15:58S 33°42' E 018°19'4 3.2
2018-Dec-11 14:47S 33°39' E 018°22'1 3.1
2018-Dec-11 14:30S 33°38' E 018°21'1 1.0
2018-Dec-11 13:56S 33°38' E 018°22'2 4.2
2018-Dec-11 13:25S 33°40' E 018°23'2 4.3
2018-Dec-11 12:55S 33°42' E 018°24'2 4.4
2018-Dec-11 12:30S 33°43' E 018°24'2 3.7
2018-Dec-11 11:59S 33°45' E 018°24'1 1.0
2018-Dec-11 11:08S 33°46' E 018°24'0 0.3
2018-Dec-11 10:50S 33°46' E 018°24'2 6.0
2018-Dec-11 10:30S 33°48' E 018°25'6 8.8
2018-Dec-11 09:52S 33°53' E 018°27'1 1.4
2018-Dec-11 09:30S 33°54' E 018°27'0 0.3
2018-Dec-11 09:00S 33°54' E 018°27'0 0.4
2018-Dec-11 08:30S 33°54' E 018°27'1 2.8
2018-Dec-11 07:59S 33°54' E 018°26'0 0.0
2018-Dec-11 07:29S 33°54' E 018°26'0 0.0
2018-Dec-11 06:59S 33°54' E 018°26'0 0.0
2018-Dec-10 18:27S 33°54' E 018°26'0 0.0
2018-Dec-10 18:00S 33°54' E 018°26'0 0.0
2018-Dec-10 17:30S 33°54' E 018°26'0 0.0
2018-Dec-10 17:00S 33°54' E 018°26'0 0.0
2018-Dec-10 16:30S 33°54' E 018°26'0 0.0
2018-Dec-10 16:00S 33°54' E 018°26'0 0.0
2018-Dec-10 15:30S 33°54' E 018°26'0 0.0
2018-Dec-10 15:00S 33°54' E 018°26'0 0.0
2018-Dec-10 14:30S 33°54' E 018°26'0 0.0
2018-Dec-10 14:00S 33°54' E 018°26'0 0.0
2018-Dec-10 13:30S 33°54' E 018°26'0 0.0
2018-Dec-10 13:00S 33°54' E 018°26'0 0.0
2018-Dec-10 12:30S 33°54' E 018°26'0 0.0
2018-Dec-10 12:00S 33°54' E 018°26'0 0.0
2018-Dec-10 11:27S 33°54' E 018°26'0 0.0
2018-Dec-10 11:00S 33°54' E 018°26'0 0.0
2018-Dec-10 10:30S 33°54' E 018°26'0 0.0
2018-Dec-10 10:00S 33°54' E 018°26'0 0.0
2018-Dec-10 09:30S 33°54' E 018°26'0 0.0
2018-Dec-10 09:00S 33°54' E 018°26'0 0.0
2018-Dec-10 08:24S 33°54' E 018°26'0 0.0
2018-Dec-10 08:00S 33°54' E 018°26'0 0.0
2018-Dec-10 07:30S 33°54' E 018°26'0 0.0
2018-Dec-10 07:00S 33°54' E 018°26'0 0.0
2018-Dec-08 21:11S 33°54' E 018°26'0 0.0
2018-Dec-08 20:59S 33°54' E 018°26'0 0.0
2018-Dec-08 20:26S 33°54' E 018°26'0 0.0
2018-Dec-08 19:59S 33°54' E 018°26'0 0.0
2018-Dec-08 19:29S 33°54' E 018°26'0 0.0
2018-Dec-08 18:59S 33°54' E 018°26'0 0.0
2018-Dec-08 18:29S 33°54' E 018°26'0 0.0
2018-Dec-08 17:59S 33°54' E 018°26'0 0.0
2018-Dec-08 17:29S 33°54' E 018°26'0 0.0
2018-Dec-08 16:59S 33°54' E 018°26'0 0.0
2018-Dec-08 16:29S 33°54' E 018°26'0 0.0
2018-Dec-08 15:56S 33°54' E 018°26'0 0.0
2018-Dec-08 15:29S 33°54' E 018°26'0 0.0
2018-Dec-08 14:59S 33°54' E 018°26'0 0.0
2018-Dec-08 14:29S 33°54' E 018°26'0 0.0
2018-Dec-08 13:59S 33°54' E 018°26'0 0.0
2018-Dec-08 13:29S 33°54' E 018°26'0 0.0
2018-Dec-08 12:59S 33°54' E 018°26'0 0.0
2018-Dec-08 12:29S 33°54' E 018°26'0 0.0
2018-Dec-08 11:59S 33°54' E 018°26'0 0.0
2018-Dec-08 11:29S 33°54' E 018°26'0 0.0
2018-Dec-08 10:59S 33°54' E 018°26'0 0.0
2018-Dec-08 10:29S 33°54' E 018°26'0 0.0
2018-Dec-08 09:59S 33°54' E 018°26'0 0.0
2018-Dec-08 09:29S 33°54' E 018°26'0 0.0
2018-Dec-08 08:59S 33°54' E 018°26'0 0.0
2018-Dec-08 08:28S 33°54' E 018°26'0 0.0
2018-Dec-08 07:58S 33°54' E 018°26'0 0.0
2018-Dec-08 07:28S 33°54' E 018°26'0 0.0
2018-Dec-08 06:58S 33°54' E 018°26'0 0.0
2018-Dec-08 06:28S 33°54' E 018°26'0 0.0
2018-Dec-08 05:58S 33°54' E 018°26'0 0.0
2018-Dec-08 05:28S 33°54' E 018°26'0 0.0
2018-Dec-08 04:58S 33°54' E 018°26'0 0.0
2018-Dec-08 04:28S 33°54' E 018°26'0 0.0
2018-Dec-08 03:58S 33°54' E 018°26'0 0.0
2018-Dec-08 03:28S 33°54' E 018°26'0 0.0
2018-Dec-08 02:58S 33°54' E 018°26'0 0.0
2018-Dec-08 02:28S 33°54' E 018°26'0 0.0
2018-Dec-08 01:52S 33°54' E 018°26'0 0.0
2018-Dec-08 01:28S 33°54' E 018°26'0 0.0
2018-Dec-08 00:55S 33°54' E 018°26'0 0.0
2018-Dec-08 00:28S 33°54' E 018°26'0 0.0
2018-Dec-07 23:55S 33°54' E 018°26'0 0.0
2018-Dec-07 23:28S 33°54' E 018°26'0 0.0
2018-Dec-07 22:58S 33°54' E 018°26'0 0.0
2018-Dec-07 22:28S 33°54' E 018°26'0 0.0
2018-Dec-07 21:58S 33°54' E 018°26'0 0.0
2018-Dec-07 21:28S 33°54' E 018°26'0 0.0
2018-Dec-07 20:58S 33°54' E 018°26'0 0.0
2018-Dec-07 20:28S 33°54' E 018°26'0 0.0
2018-Dec-07 19:58S 33°54' E 018°26'0 0.0
2018-Dec-07 19:28S 33°54' E 018°26'0 0.0
2018-Dec-07 18:58S 33°54' E 018°26'0 0.0
2018-Dec-07 18:28S 33°54' E 018°26'0 0.0
2018-Dec-07 17:58S 33°54' E 018°26'0 0.0
2018-Dec-07 17:25S 33°54' E 018°26'0 0.0
2018-Dec-07 16:58S 33°54' E 018°26'0 0.0
2018-Dec-07 16:28S 33°54' E 018°26'0 0.0
2018-Dec-07 15:58S 33°54' E 018°26'0 0.0
2018-Dec-07 15:28S 33°54' E 018°26'0 0.0
2018-Dec-07 14:58S 33°54' E 018°26'0 0.0
2018-Dec-07 14:28S 33°54' E 018°26'0 0.0
2018-Dec-07 13:58S 33°54' E 018°26'0 0.0
2018-Dec-07 13:28S 33°54' E 018°26'0 0.0
2018-Dec-07 12:58S 33°54' E 018°26'0 0.0
2018-Dec-07 12:28S 33°54' E 018°26'0 0.0
2018-Dec-07 11:55S 33°54' E 018°26'0 0.0
2018-Dec-07 11:28S 33°54' E 018°26'0 0.0
2018-Dec-07 10:58S 33°54' E 018°26'0 0.0
2018-Dec-07 10:28S 33°54' E 018°26'0 0.0
2018-Dec-07 09:58S 33°54' E 018°26'0 0.0
2018-Dec-07 09:25S 33°54' E 018°26'0 0.0
2018-Dec-07 08:58S 33°54' E 018°26'0 0.0
2018-Dec-07 08:28S 33°54' E 018°26'0 0.0
2018-Dec-07 07:58S 33°54' E 018°26'0 0.0
2018-Dec-07 07:28S 33°54' E 018°26'0 0.0
2018-Dec-07 06:46S 33°54' E 018°26'0 0.0
2018-Dec-07 06:28S 33°54' E 018°26'0 0.0
2018-Dec-07 05:58S 33°54' E 018°26'0 0.0
2018-Dec-07 05:28S 33°54' E 018°26'0 0.0
2018-Dec-07 04:58S 33°54' E 018°26'0 0.0
2018-Dec-07 04:28S 33°54' E 018°26'0 0.0
2018-Dec-07 03:58S 33°54' E 018°26'0 0.0
2018-Dec-07 02:58S 33°54' E 018°26'0 0.0
2018-Dec-07 02:28S 33°54' E 018°26'0 0.0
2018-Dec-07 01:58S 33°54' E 018°26'0 0.0
2018-Dec-07 01:28S 33°54' E 018°26'0 0.0
2018-Dec-07 00:58S 33°54' E 018°26'0 0.0
2018-Dec-07 00:31S 33°54' E 018°26'0 0.0
2018-Dec-07 00:01S 33°54' E 018°26'0 0.0
2018-Dec-06 23:30S 33°54' E 018°26'0 0.0
2018-Dec-06 23:00S 33°54' E 018°26'0 0.0
2018-Dec-06 22:30S 33°54' E 018°26'0 0.0
2018-Dec-06 22:00S 33°54' E 018°26'0 0.0
2018-Dec-06 21:30S 33°54' E 018°26'0 0.0
2018-Dec-06 21:00S 33°54' E 018°26'0 0.0
2018-Dec-06 20:30S 33°54' E 018°26'0 0.0
2018-Dec-06 20:00S 33°54' E 018°26'0 0.0
2018-Dec-06 19:30S 33°54' E 018°26'0 0.0
2018-Dec-06 19:00S 33°54' E 018°26'0 0.0
2018-Dec-06 18:30S 33°54' E 018°26'0 0.0
2018-Dec-06 18:00S 33°54' E 018°26'0 0.0
2018-Dec-06 17:30S 33°54' E 018°26'0 0.0
2018-Dec-06 17:00S 33°54' E 018°26'0 0.0
2018-Dec-06 16:30S 33°54' E 018°26'0 0.0
2018-Dec-06 15:57S 33°54' E 018°26'0 0.0
2018-Dec-06 15:30S 33°54' E 018°26'0 0.0
2018-Dec-06 14:57S 33°54' E 018°26'0 0.0
2018-Dec-06 14:30S 33°54' E 018°26'0 0.0
2018-Dec-06 14:00S 33°54' E 018°26'0 0.0
2018-Dec-06 13:30S 33°54' E 018°26'0 0.0
2018-Dec-06 13:00S 33°54' E 018°26'0 0.0
2018-Dec-06 12:30S 33°54' E 018°26'0 0.0
2018-Dec-06 12:00S 33°54' E 018°26'0 0.0
2018-Dec-06 11:30S 33°54' E 018°26'0 0.0
2018-Dec-06 11:00S 33°54' E 018°26'0 0.0
2018-Dec-06 10:30S 33°54' E 018°26'0 0.0
2018-Dec-06 10:00S 33°54' E 018°26'0 0.0
2018-Dec-06 09:30S 33°54' E 018°26'0 0.0
2018-Dec-06 09:00S 33°54' E 018°26'0 0.0
2018-Dec-06 08:30S 33°54' E 018°26'0 0.0
2018-Dec-06 08:00S 33°54' E 018°26'0 0.0
2018-Dec-06 07:30S 33°54' E 018°26'0 0.0
2018-Dec-06 07:00S 33°54' E 018°26'0 0.0
2018-Dec-06 06:30S 33°54' E 018°26'0 0.0
2018-Dec-06 06:00S 33°54' E 018°26'0 0.0
2018-Dec-06 05:30S 33°54' E 018°26'0 0.0
2018-Dec-06 05:00S 33°54' E 018°26'0 0.0
2018-Dec-06 04:30S 33°54' E 018°26'0 0.0
2018-Dec-06 04:00S 33°54' E 018°26'0 0.0
2018-Dec-06 03:30S 33°54' E 018°26'0 0.0
2018-Dec-06 02:30S 33°54' E 018°26'0 0.0
2018-Dec-06 02:00S 33°54' E 018°26'0 0.0
2018-Dec-06 01:30S 33°54' E 018°26'0 0.0
2018-Dec-06 01:00S 33°54' E 018°26'0 0.0
2018-Dec-06 00:30S 33°54' E 018°26'0 0.0
2018-Dec-06 00:00S 33°54' E 018°26'0 0.0
2018-Dec-05 23:27S 33°54' E 018°26'0 0.0
2018-Dec-05 23:00S 33°54' E 018°26'0 0.0
2018-Dec-05 22:30S 33°54' E 018°26'0 0.0
2018-Dec-05 22:00S 33°54' E 018°26'0 0.0
2018-Dec-05 21:27S 33°54' E 018°26'0 0.0
2018-Dec-05 21:00S 33°54' E 018°26'0 0.0
2018-Dec-05 20:30S 33°54' E 018°26'0 0.0
2018-Dec-05 20:00S 33°54' E 018°26'0 0.0
2018-Dec-05 19:30S 33°54' E 018°26'0 0.0
2018-Dec-05 19:00S 33°54' E 018°26'0 0.0
2018-Dec-05 18:27S 33°54' E 018°26'0 0.0
2018-Dec-05 16:03S 33°54' E 018°26'0 0.2
2018-Dec-05 16:00S 33°54' E 018°26'0 0.0
2018-Dec-05 15:30S 33°54' E 018°26'0 0.0
2018-Dec-05 14:59S 33°54' E 018°26'0 0.0
2018-Dec-05 14:29S 33°54' E 018°26'0 0.0
2018-Dec-05 13:59S 33°54' E 018°26'0 0.0
2018-Dec-05 13:29S 33°54' E 018°26'0 0.0
2018-Dec-05 12:59S 33°54' E 018°26'0 0.0
2018-Dec-05 12:29S 33°54' E 018°26'0 0.0
2018-Dec-05 11:59S 33°54' E 018°26'0 0.0
2018-Dec-05 11:29S 33°54' E 018°26'0 0.0
2018-Dec-05 10:56S 33°54' E 018°26'0 0.0
2018-Dec-05 10:29S 33°54' E 018°26'0 0.0
2018-Dec-05 09:59S 33°54' E 018°26'0 0.0
2018-Dec-05 09:29S 33°54' E 018°26'0 0.0
2018-Dec-05 09:00S 33°54' E 018°26'0 0.0
2018-Dec-05 08:30S 33°54' E 018°26'0 0.0
2018-Dec-05 08:00S 33°54' E 018°26'0 0.0
2018-Dec-05 07:30S 33°54' E 018°26'0 0.0
2018-Dec-05 07:00S 33°54' E 018°26'0 0.0
2018-Dec-05 06:30S 33°54' E 018°26'0 0.0
2018-Dec-04 22:38S 33°54' E 018°26'0 0.1
2018-Dec-04 22:29S 33°54' E 018°26'0 0.0
2018-Dec-04 21:59S 33°54' E 018°26'0 0.0
2018-Dec-04 21:26S 33°54' E 018°26'0 0.0
2018-Dec-04 20:59S 33°54' E 018°26'0 0.0
2018-Dec-04 20:29S 33°54' E 018°26'0 0.0
2018-Dec-04 19:56S 33°54' E 018°26'0 0.0
2018-Dec-04 19:29S 33°54' E 018°26'0 0.0
2018-Dec-04 18:59S 33°54' E 018°26'0 0.0
2018-Dec-04 18:23S 33°54' E 018°26'0 0.0
2018-Dec-04 17:59S 33°54' E 018°26'0 0.0
2018-Dec-04 17:29S 33°54' E 018°26'0 0.0
2018-Dec-04 16:56S 33°54' E 018°26'0 0.0
2018-Dec-04 16:29S 33°54' E 018°26'0 0.0
2018-Dec-04 15:59S 33°54' E 018°26'0 0.0
2018-Dec-04 15:29S 33°54' E 018°26'0 0.0
2018-Dec-04 14:59S 33°54' E 018°26'0 0.0
2018-Dec-04 14:29S 33°54' E 018°26'0 0.0
2018-Dec-04 13:59S 33°54' E 018°26'0 0.0
2018-Dec-04 13:29S 33°54' E 018°26'0 0.0
2018-Dec-04 12:59S 33°54' E 018°26'0 0.0
2018-Dec-04 12:29S 33°54' E 018°26'0 0.0
2018-Dec-04 10:02S 33°54' E 018°26'0 0.0
2018-Dec-04 09:56S 33°54' E 018°26'0 0.0
2018-Dec-04 09:29S 33°54' E 018°26'0 0.0
2018-Dec-04 08:59S 33°54' E 018°26'0 0.0
2018-Dec-04 08:29S 33°54' E 018°26'0 0.0
2018-Dec-04 07:56S 33°54' E 018°26'0 0.0
2018-Dec-04 07:26S 33°54' E 018°26'0 0.0
2018-Dec-04 06:59S 33°54' E 018°26'0 0.0
2018-Dec-04 06:29S 33°54' E 018°26'0 0.0
2018-Dec-04 05:59S 33°54' E 018°26'0 0.0
2018-Dec-04 05:29S 33°54' E 018°26'0 0.0
2018-Dec-04 04:59S 33°54' E 018°26'0 0.0
2018-Dec-04 04:29S 33°54' E 018°26'0 0.0
2018-Dec-04 03:59S 33°54' E 018°26'0 0.0
2018-Dec-04 03:29S 33°54' E 018°26'0 0.0
2018-Dec-04 02:59S 33°54' E 018°26'0 0.0
2018-Dec-04 02:29S 33°54' E 018°26'0 0.0
2018-Dec-04 01:59S 33°54' E 018°26'0 0.0
2018-Dec-04 01:29S 33°54' E 018°26'0 0.0
2018-Dec-04 00:59S 33°54' E 018°26'0 0.0
2018-Dec-04 00:29S 33°54' E 018°26'0 0.0
2018-Dec-03 23:59S 33°54' E 018°26'0 0.0
2018-Dec-03 23:29S 33°54' E 018°26'0 0.0
2018-Dec-03 22:56S 33°54' E 018°26'0 0.0
2018-Dec-03 22:26S 33°54' E 018°26'0 0.0
2018-Dec-03 21:59S 33°54' E 018°26'0 0.0
2018-Dec-03 21:29S 33°54' E 018°26'0 0.0
2018-Dec-03 20:56S 33°54' E 018°26'0 0.0
2018-Dec-03 20:29S 33°54' E 018°26'0 0.0
2018-Dec-03 19:59S 33°54' E 018°26'0 0.0
2018-Dec-03 19:29S 33°54' E 018°26'0 0.0
2018-Dec-03 18:59S 33°54' E 018°26'0 0.0
2018-Dec-03 18:23S 33°54' E 018°26'0 0.0
2018-Dec-03 17:58S 33°54' E 018°26'0 0.0
2018-Dec-03 17:28S 33°54' E 018°26'0 0.0
2018-Dec-03 16:58S 33°54' E 018°26'0 0.0
2018-Dec-03 16:28S 33°54' E 018°26'0 0.0
2018-Dec-03 15:58S 33°54' E 018°26'0 0.0
2018-Dec-03 15:28S 33°54' E 018°26'0 0.0
2018-Dec-03 14:58S 33°54' E 018°26'0 0.0
2018-Dec-03 14:28S 33°54' E 018°26'0 0.0
2018-Dec-03 13:58S 33°54' E 018°26'0 0.0
2018-Dec-03 13:28S 33°54' E 018°26'0 0.0
2018-Dec-03 12:58S 33°54' E 018°26'0 0.0
2018-Dec-03 12:28S 33°54' E 018°26'0 0.0
2018-Dec-03 11:58S 33°54' E 018°26'0 0.0
2018-Dec-03 11:28S 33°54' E 018°26'0 0.0
2018-Dec-03 10:58S 33°54' E 018°26'0 0.0
2018-Dec-03 10:22S 33°54' E 018°26'0 0.0
2018-Dec-03 09:58S 33°54' E 018°26'0 0.0
2018-Dec-03 09:28S 33°54' E 018°26'0 0.0
2018-Dec-03 08:58S 33°54' E 018°26'0 0.0
2018-Dec-03 08:28S 33°54' E 018°26'0 0.0
2018-Dec-03 07:58S 33°54' E 018°26'0 0.0
2018-Dec-03 07:28S 33°54' E 018°26'0 0.0
2018-Dec-03 06:58S 33°54' E 018°26'0 0.0
2018-Dec-03 06:28S 33°54' E 018°26'0 0.0
2018-Dec-03 05:58S 33°54' E 018°26'0 0.0
2018-Dec-03 05:28S 33°54' E 018°26'0 0.0
2018-Dec-03 04:58S 33°54' E 018°26'0 0.0
2018-Dec-03 04:28S 33°54' E 018°26'0 0.0
2018-Dec-03 03:58S 33°54' E 018°26'0 0.0
2018-Dec-03 03:28S 33°54' E 018°26'0 0.0
2018-Dec-03 02:58S 33°54' E 018°26'0 0.0
2018-Dec-03 02:28S 33°54' E 018°26'0 0.0
2018-Dec-03 01:58S 33°54' E 018°26'0 0.0
2018-Dec-03 01:28S 33°54' E 018°26'0 0.0
2018-Dec-03 00:58S 33°54' E 018°26'0 0.0
2018-Dec-03 00:28S 33°54' E 018°26'0 0.0
2018-Dec-02 23:58S 33°54' E 018°26'0 0.0
2018-Dec-02 23:28S 33°54' E 018°26'0 0.0
2018-Dec-02 22:58S 33°54' E 018°26'0 0.0
2018-Dec-02 22:28S 33°54' E 018°26'0 0.0
2018-Dec-02 21:58S 33°54' E 018°26'0 0.0
2018-Dec-02 21:28S 33°54' E 018°26'0 0.0
2018-Dec-02 20:58S 33°54' E 018°26'0 0.0
2018-Dec-02 20:28S 33°54' E 018°26'0 0.0
2018-Dec-02 19:58S 33°54' E 018°26'0 0.0
2018-Dec-02 19:28S 33°54' E 018°26'0 0.0
2018-Dec-02 18:58S 33°54' E 018°26'0 0.0
2018-Dec-02 18:28S 33°54' E 018°26'0 0.0
2018-Dec-02 17:58S 33°54' E 018°26'0 0.0
2018-Dec-02 17:28S 33°54' E 018°26'0 0.0
2018-Dec-02 16:58S 33°54' E 018°26'0 0.0
2018-Dec-02 16:28S 33°54' E 018°26'  
Track history (hours):
 
Tides and Currents Weather Stations Pressure Air Temp Water Temp Dewpoint Dewpoint Depression Visibility Wind Speed Wind Dir Waves Ship Positions

Oceanographic research ship Algoa (South Africa)

Detailed information on ship capabilities available from University of Delaware's Ocean Information Center.

Last reported at 2018-Dec-12 16:00 UTC. Time now 2018-Dec-12 16:08 UTC.
Position S 33°54' E 018°26'.

Type: Other ship. MMSI: 599996424.

Date/timePositionNaut miles runAvg speedWind from/ knotsBaromVisibWave heightAir tempDewpointWater temp
2018-Dec-12 16:00S 33°54' E 018°26'0 0.0
2018-Dec-12 15:30S 33°54' E 018°26'0 0.6
2018-Dec-12 15:00S 33°54' E 018°26'3 6.3
2018-Dec-12 14:31S 33°54' E 018°22'5 9.6
2018-Dec-12 13:57S 33°58' E 018°19'4 9.6
2018-Dec-12 13:30S 34°02' E 018°16'510.0
2018-Dec-12 13:00S 34°05' E 018°11'27 2.5
2018-Dec-12 02:04S 34°17' E 017°42'1 4.3
2018-Dec-12 01:51S 34°16' E 017°43'3 3.9
2018-Dec-12 00:57S 34°13' E 017°45'3 3.7
2018-Dec-12 00:14S 34°12' E 017°48'1 3.8
2018-Dec-11 23:58S 34°11' E 017°48'2 3.7
2018-Dec-11 23:30S 34°10' E 017°50'2 4.2
2018-Dec-11 23:00S 34°08' E 017°51'1 2.8
2018-Dec-11 22:30S 34°07' E 017°52'2 3.4
2018-Dec-11 22:00S 34°05' E 017°54'2 4.6
2018-Dec-11 21:30S 34°04' E 017°55'2 4.5
2018-Dec-11 21:00S 34°02' E 017°57'2 4.0
2018-Dec-11 20:30S 34°00' E 017°58'2 4.3
2018-Dec-11 20:00S 33°59' E 018°00'2 4.3
2018-Dec-11 19:30S 33°57' E 018°02'8 5.1
2018-Dec-11 17:52S 33°50' E 018°08'7 6.5
2018-Dec-11 16:51S 33°46' E 018°14'2 6.3
2018-Dec-11 16:29S 33°45' E 018°16'4 7.3
2018-Dec-11 15:58S 33°42' E 018°19'4 3.2
2018-Dec-11 14:47S 33°39' E 018°22'1 3.1
2018-Dec-11 14:30S 33°38' E 018°21'1 1.0
2018-Dec-11 13:56S 33°38' E 018°22'2 4.2
2018-Dec-11 13:25S 33°40' E 018°23'2 4.3
2018-Dec-11 12:55S 33°42' E 018°24'2 4.4
2018-Dec-11 12:30S 33°43' E 018°24'2 3.7
2018-Dec-11 11:59S 33°45' E 018°24'1 1.0
2018-Dec-11 11:08S 33°46' E 018°24'0 0.3
2018-Dec-11 10:50S 33°46' E 018°24'2 6.0
2018-Dec-11 10:30S 33°48' E 018°25'6 8.8
2018-Dec-11 09:52S 33°53' E 018°27'1 1.4
2018-Dec-11 09:30S 33°54' E 018°27'0 0.3
2018-Dec-11 09:00S 33°54' E 018°27'0 0.4
2018-Dec-11 08:30S 33°54' E 018°27'1 2.8
2018-Dec-11 07:59S 33°54' E 018°26'0 0.0
2018-Dec-11 07:29S 33°54' E 018°26'0 0.0
2018-Dec-11 06:59S 33°54' E 018°26'0 0.0
2018-Dec-10 18:27S 33°54' E 018°26'0 0.0
2018-Dec-10 18:00S 33°54' E 018°26'0 0.0
2018-Dec-10 17:30S 33°54' E 018°26'0 0.0
2018-Dec-10 17:00S 33°54' E 018°26'0 0.0
2018-Dec-10 16:30S 33°54' E 018°26'0 0.0
2018-Dec-10 16:00S 33°54' E 018°26'0 0.0
2018-Dec-10 15:30S 33°54' E 018°26'0 0.0
2018-Dec-10 15:00S 33°54' E 018°26'0 0.0
2018-Dec-10 14:30S 33°54' E 018°26'0 0.0
2018-Dec-10 14:00S 33°54' E 018°26'0 0.0
2018-Dec-10 13:30S 33°54' E 018°26'0 0.0
2018-Dec-10 13:00S 33°54' E 018°26'0 0.0
2018-Dec-10 12:30S 33°54' E 018°26'0 0.0
2018-Dec-10 12:00S 33°54' E 018°26'0 0.0
2018-Dec-10 11:27S 33°54' E 018°26'0 0.0
2018-Dec-10 11:00S 33°54' E 018°26'0 0.0
2018-Dec-10 10:30S 33°54' E 018°26'0 0.0
2018-Dec-10 10:00S 33°54' E 018°26'0 0.0
2018-Dec-10 09:30S 33°54' E 018°26'0 0.0
2018-Dec-10 09:00S 33°54' E 018°26'0 0.0
2018-Dec-10 08:24S 33°54' E 018°26'0 0.0
2018-Dec-10 08:00S 33°54' E 018°26'0 0.0
2018-Dec-10 07:30S 33°54' E 018°26'0 0.0
2018-Dec-10 07:00S 33°54' E 018°26'0 0.0
2018-Dec-08 21:11S 33°54' E 018°26'0 0.0
2018-Dec-08 20:59S 33°54' E 018°26'0 0.0
2018-Dec-08 20:26S 33°54' E 018°26'0 0.0
2018-Dec-08 19:59S 33°54' E 018°26'0 0.0
2018-Dec-08 19:29S 33°54' E 018°26'0 0.0
2018-Dec-08 18:59S 33°54' E 018°26'0 0.0
2018-Dec-08 18:29S 33°54' E 018°26'0 0.0
2018-Dec-08 17:59S 33°54' E 018°26'0 0.0
2018-Dec-08 17:29S 33°54' E 018°26'0 0.0
2018-Dec-08 16:59S 33°54' E 018°26'0 0.0
2018-Dec-08 16:29S 33°54' E 018°26'0 0.0
2018-Dec-08 15:56S 33°54' E 018°26'0 0.0
2018-Dec-08 15:29S 33°54' E 018°26'0 0.0
2018-Dec-08 14:59S 33°54' E 018°26'0 0.0
2018-Dec-08 14:29S 33°54' E 018°26'0 0.0
2018-Dec-08 13:59S 33°54' E 018°26'0 0.0
2018-Dec-08 13:29S 33°54' E 018°26'0 0.0
2018-Dec-08 12:59S 33°54' E 018°26'0 0.0
2018-Dec-08 12:29S 33°54' E 018°26'0 0.0
2018-Dec-08 11:59S 33°54' E 018°26'0 0.0
2018-Dec-08 11:29S 33°54' E 018°26'0 0.0
2018-Dec-08 10:59S 33°54' E 018°26'0 0.0
2018-Dec-08 10:29S 33°54' E 018°26'0 0.0
2018-Dec-08 09:59S 33°54' E 018°26'0 0.0
2018-Dec-08 09:29S 33°54' E 018°26'0 0.0
2018-Dec-08 08:59S 33°54' E 018°26'0 0.0
2018-Dec-08 08:28S 33°54' E 018°26'0 0.0
2018-Dec-08 07:58S 33°54' E 018°26'0 0.0
2018-Dec-08 07:28S 33°54' E 018°26'0 0.0
2018-Dec-08 06:58S 33°54' E 018°26'0 0.0
2018-Dec-08 06:28S 33°54' E 018°26'0 0.0
2018-Dec-08 05:58S 33°54' E 018°26'0 0.0
2018-Dec-08 05:28S 33°54' E 018°26'0 0.0
2018-Dec-08 04:58S 33°54' E 018°26'0 0.0
2018-Dec-08 04:28S 33°54' E 018°26'0 0.0
2018-Dec-08 03:58S 33°54' E 018°26'0 0.0
2018-Dec-08 03:28S 33°54' E 018°26'0 0.0
2018-Dec-08 02:58S 33°54' E 018°26'0 0.0
2018-Dec-08 02:28S 33°54' E 018°26'0 0.0
2018-Dec-08 01:52S 33°54' E 018°26'0 0.0
2018-Dec-08 01:28S 33°54' E 018°26'0 0.0
2018-Dec-08 00:55S 33°54' E 018°26'0 0.0
2018-Dec-08 00:28S 33°54' E 018°26'0 0.0
2018-Dec-07 23:55S 33°54' E 018°26'0 0.0
2018-Dec-07 23:28S 33°54' E 018°26'0 0.0
2018-Dec-07 22:58S 33°54' E 018°26'0 0.0
2018-Dec-07 22:28S 33°54' E 018°26'0 0.0
2018-Dec-07 21:58S 33°54' E 018°26'0 0.0
2018-Dec-07 21:28S 33°54' E 018°26'0 0.0
2018-Dec-07 20:58S 33°54' E 018°26'0 0.0
2018-Dec-07 20:28S 33°54' E 018°26'0 0.0
2018-Dec-07 19:58S 33°54' E 018°26'0 0.0
2018-Dec-07 19:28S 33°54' E 018°26'0 0.0
2018-Dec-07 18:58S 33°54' E 018°26'0 0.0
2018-Dec-07 18:28S 33°54' E 018°26'0 0.0
2018-Dec-07 17:58S 33°54' E 018°26'0 0.0
2018-Dec-07 17:25S 33°54' E 018°26'0 0.0
2018-Dec-07 16:58S 33°54' E 018°26'0 0.0
2018-Dec-07 16:28S 33°54' E 018°26'0 0.0
2018-Dec-07 15:58S 33°54' E 018°26'0 0.0
2018-Dec-07 15:28S 33°54' E 018°26'0 0.0
2018-Dec-07 14:58S 33°54' E 018°26'0 0.0
2018-Dec-07 14:28S 33°54' E 018°26'0 0.0
2018-Dec-07 13:58S 33°54' E 018°26'0 0.0
2018-Dec-07 13:28S 33°54' E 018°26'0 0.0
2018-Dec-07 12:58S 33°54' E 018°26'0 0.0
2018-Dec-07 12:28S 33°54' E 018°26'0 0.0
2018-Dec-07 11:55S 33°54' E 018°26'0 0.0
2018-Dec-07 11:28S 33°54' E 018°26'0 0.0
2018-Dec-07 10:58S 33°54' E 018°26'0 0.0
2018-Dec-07 10:28S 33°54' E 018°26'0 0.0
2018-Dec-07 09:58S 33°54' E 018°26'0 0.0
2018-Dec-07 09:25S 33°54' E 018°26'0 0.0
2018-Dec-07 08:58S 33°54' E 018°26'0 0.0
2018-Dec-07 08:28S 33°54' E 018°26'0 0.0
2018-Dec-07 07:58S 33°54' E 018°26'0 0.0
2018-Dec-07 07:28S 33°54' E 018°26'0 0.0
2018-Dec-07 06:46S 33°54' E 018°26'0 0.0
2018-Dec-07 06:28S 33°54' E 018°26'0 0.0
2018-Dec-07 05:58S 33°54' E 018°26'0 0.0
2018-Dec-07 05:28S 33°54' E 018°26'0 0.0
2018-Dec-07 04:58S 33°54' E 018°26'0 0.0
2018-Dec-07 04:28S 33°54' E 018°26'0 0.0
2018-Dec-07 03:58S 33°54' E 018°26'0 0.0
2018-Dec-07 02:58S 33°54' E 018°26'0 0.0
2018-Dec-07 02:28S 33°54' E 018°26'0 0.0
2018-Dec-07 01:58S 33°54' E 018°26'0 0.0
2018-Dec-07 01:28S 33°54' E 018°26'0 0.0
2018-Dec-07 00:58S 33°54' E 018°26'0 0.0
2018-Dec-07 00:31S 33°54' E 018°26'0 0.0
2018-Dec-07 00:01S 33°54' E 018°26'0 0.0
2018-Dec-06 23:30S 33°54' E 018°26'0 0.0
2018-Dec-06 23:00S 33°54' E 018°26'0 0.0
2018-Dec-06 22:30S 33°54' E 018°26'0 0.0
2018-Dec-06 22:00S 33°54' E 018°26'0 0.0
2018-Dec-06 21:30S 33°54' E 018°26'0 0.0
2018-Dec-06 21:00S 33°54' E 018°26'0 0.0
2018-Dec-06 20:30S 33°54' E 018°26'0 0.0
2018-Dec-06 20:00S 33°54' E 018°26'0 0.0
2018-Dec-06 19:30S 33°54' E 018°26'0 0.0
2018-Dec-06 19:00S 33°54' E 018°26'0 0.0
2018-Dec-06 18:30S 33°54' E 018°26'0 0.0
2018-Dec-06 18:00S 33°54' E 018°26'0 0.0
2018-Dec-06 17:30S 33°54' E 018°26'0 0.0
2018-Dec-06 17:00S 33°54' E 018°26'0 0.0
2018-Dec-06 16:30S 33°54' E 018°26'0 0.0
2018-Dec-06 15:57S 33°54' E 018°26'0 0.0
2018-Dec-06 15:30S 33°54' E 018°26'0 0.0
2018-Dec-06 14:57S 33°54' E 018°26'0 0.0
2018-Dec-06 14:30S 33°54' E 018°26'0 0.0
2018-Dec-06 14:00S 33°54' E 018°26'0 0.0
2018-Dec-06 13:30S 33°54' E 018°26'0 0.0
2018-Dec-06 13:00S 33°54' E 018°26'0 0.0
2018-Dec-06 12:30S 33°54' E 018°26'0 0.0
2018-Dec-06 12:00S 33°54' E 018°26'0 0.0
2018-Dec-06 11:30S 33°54' E 018°26'0 0.0
2018-Dec-06 11:00S 33°54' E 018°26'0 0.0
2018-Dec-06 10:30S 33°54' E 018°26'0 0.0
2018-Dec-06 10:00S 33°54' E 018°26'0 0.0
2018-Dec-06 09:30S 33°54' E 018°26'0 0.0
2018-Dec-06 09:00S 33°54' E 018°26'0 0.0
2018-Dec-06 08:30S 33°54' E 018°26'0 0.0
2018-Dec-06 08:00S 33°54' E 018°26'0 0.0
2018-Dec-06 07:30S 33°54' E 018°26'0 0.0
2018-Dec-06 07:00S 33°54' E 018°26'0 0.0
2018-Dec-06 06:30S 33°54' E 018°26'0 0.0
2018-Dec-06 06:00S 33°54' E 018°26'0 0.0
2018-Dec-06 05:30S 33°54' E 018°26'0 0.0
2018-Dec-06 05:00S 33°54' E 018°26'0 0.0
2018-Dec-06 04:30S 33°54' E 018°26'0 0.0
2018-Dec-06 04:00S 33°54' E 018°26'0 0.0
2018-Dec-06 03:30S 33°54' E 018°26'0 0.0
2018-Dec-06 02:30S 33°54' E 018°26'0 0.0
2018-Dec-06 02:00S 33°54' E 018°26'0 0.0
2018-Dec-06 01:30S 33°54' E 018°26'0 0.0
2018-Dec-06 01:00S 33°54' E 018°26'0 0.0
2018-Dec-06 00:30S 33°54' E 018°26'0 0.0
2018-Dec-06 00:00S 33°54' E 018°26'0 0.0
2018-Dec-05 23:27S 33°54' E 018°26'0 0.0
2018-Dec-05 23:00S 33°54' E 018°26'0 0.0
2018-Dec-05 22:30S 33°54' E 018°26'0 0.0
2018-Dec-05 22:00S 33°54' E 018°26'0 0.0
2018-Dec-05 21:27S 33°54' E 018°26'0 0.0
2018-Dec-05 21:00S 33°54' E 018°26'0 0.0
2018-Dec-05 20:30S 33°54' E 018°26'0 0.0
2018-Dec-05 20:00S 33°54' E 018°26'0 0.0
2018-Dec-05 19:30S 33°54' E 018°26'0 0.0
2018-Dec-05 19:00S 33°54' E 018°26'0 0.0
2018-Dec-05 18:27S 33°54' E 018°26'0 0.0
2018-Dec-05 16:03S 33°54' E 018°26'0 0.2
2018-Dec-05 16:00S 33°54' E 018°26'0 0.0
2018-Dec-05 15:30S 33°54' E 018°26'0 0.0
2018-Dec-05 14:59S 33°54' E 018°26'0 0.0
2018-Dec-05 14:29S 33°54' E 018°26'0 0.0
2018-Dec-05 13:59S 33°54' E 018°26'0 0.0
2018-Dec-05 13:29S 33°54' E 018°26'0 0.0
2018-Dec-05 12:59S 33°54' E 018°26'0 0.0
2018-Dec-05 12:29S 33°54' E 018°26'0 0.0
2018-Dec-05 11:59S 33°54' E 018°26'0 0.0
2018-Dec-05 11:29S 33°54' E 018°26'0 0.0
2018-Dec-05 10:56S 33°54' E 018°26'0 0.0
2018-Dec-05 10:29S 33°54' E 018°26'0 0.0
2018-Dec-05 09:59S 33°54' E 018°26'0 0.0
2018-Dec-05 09:29S 33°54' E 018°26'0 0.0
2018-Dec-05 09:00S 33°54' E 018°26'0 0.0
2018-Dec-05 08:30S 33°54' E 018°26'0 0.0
2018-Dec-05 08:00S 33°54' E 018°26'0 0.0
2018-Dec-05 07:30S 33°54' E 018°26'0 0.0
2018-Dec-05 07:00S 33°54' E 018°26'0 0.0
2018-Dec-05 06:30S 33°54' E 018°26'0 0.0
2018-Dec-04 22:38S 33°54' E 018°26'0 0.1
2018-Dec-04 22:29S 33°54' E 018°26'0 0.0
2018-Dec-04 21:59S 33°54' E 018°26'0 0.0
2018-Dec-04 21:26S 33°54' E 018°26'0 0.0
2018-Dec-04 20:59S 33°54' E 018°26'0 0.0
2018-Dec-04 20:29S 33°54' E 018°26'0 0.0
2018-Dec-04 19:56S 33°54' E 018°26'0 0.0
2018-Dec-04 19:29S 33°54' E 018°26'0 0.0
2018-Dec-04 18:59S 33°54' E 018°26'0 0.0
2018-Dec-04 18:23S 33°54' E 018°26'0 0.0
2018-Dec-04 17:59S 33°54' E 018°26'0 0.0
2018-Dec-04 17:29S 33°54' E 018°26'0 0.0
2018-Dec-04 16:56S 33°54' E 018°26'0 0.0
2018-Dec-04 16:29S 33°54' E 018°26'0 0.0
2018-Dec-04 15:59S 33°54' E 018°26'0 0.0
2018-Dec-04 15:29S 33°54' E 018°26'0 0.0
2018-Dec-04 14:59S 33°54' E 018°26'0 0.0
2018-Dec-04 14:29S 33°54' E 018°26'0 0.0
2018-Dec-04 13:59S 33°54' E 018°26'0 0.0
2018-Dec-04 13:29S 33°54' E 018°26'0 0.0
2018-Dec-04 12:59S 33°54' E 018°26'0 0.0
2018-Dec-04 12:29S 33°54' E 018°26'0 0.0
2018-Dec-04 10:02S 33°54' E 018°26'0 0.0
2018-Dec-04 09:56S 33°54' E 018°26'0 0.0
2018-Dec-04 09:29S 33°54' E 018°26'0 0.0
2018-Dec-04 08:59S 33°54' E 018°26'0 0.0
2018-Dec-04 08:29S 33°54' E 018°26'0 0.0
2018-Dec-04 07:56S 33°54' E 018°26'0 0.0
2018-Dec-04 07:26S 33°54' E 018°26'0 0.0
2018-Dec-04 06:59S 33°54' E 018°26'0 0.0
2018-Dec-04 06:29S 33°54' E 018°26'0 0.0
2018-Dec-04 05:59S 33°54' E 018°26'0 0.0
2018-Dec-04 05:29S 33°54' E 018°26'0 0.0
2018-Dec-04 04:59S 33°54' E 018°26'0 0.0
2018-Dec-04 04:29S 33°54' E 018°26'0 0.0
2018-Dec-04 03:59S 33°54' E 018°26'0 0.0
2018-Dec-04 03:29S 33°54' E 018°26'0 0.0
2018-Dec-04 02:59S 33°54' E 018°26'0 0.0
2018-Dec-04 02:29S 33°54' E 018°26'0 0.0
2018-Dec-04 01:59S 33°54' E 018°26'0 0.0
2018-Dec-04 01:29S 33°54' E 018°26'0 0.0
2018-Dec-04 00:59S 33°54' E 018°26'0 0.0
2018-Dec-04 00:29S 33°54' E 018°26'0 0.0
2018-Dec-03 23:59S 33°54' E 018°26'0 0.0
2018-Dec-03 23:29S 33°54' E 018°26'0 0.0
2018-Dec-03 22:56S 33°54' E 018°26'0 0.0
2018-Dec-03 22:26S 33°54' E 018°26'0 0.0
2018-Dec-03 21:59S 33°54' E 018°26'0 0.0
2018-Dec-03 21:29S 33°54' E 018°26'0 0.0
2018-Dec-03 20:56S 33°54' E 018°26'0 0.0
2018-Dec-03 20:29S 33°54' E 018°26'0 0.0
2018-Dec-03 19:59S 33°54' E 018°26'0 0.0
2018-Dec-03 19:29S 33°54' E 018°26'0 0.0
2018-Dec-03 18:59S 33°54' E 018°26'0 0.0
2018-Dec-03 18:23S 33°54' E 018°26'0 0.0
2018-Dec-03 17:58S 33°54' E 018°26'0 0.0
2018-Dec-03 17:28S 33°54' E 018°26'0 0.0
2018-Dec-03 16:58S 33°54' E 018°26'0 0.0
2018-Dec-03 16:28S 33°54' E 018°26'0 0.0
2018-Dec-03 15:58S 33°54' E 018°26'0 0.0
2018-Dec-03 15:28S 33°54' E 018°26'0 0.0
2018-Dec-03 14:58S 33°54' E 018°26'0 0.0
2018-Dec-03 14:28S 33°54' E 018°26'0 0.0
2018-Dec-03 13:58S 33°54' E 018°26'0 0.0
2018-Dec-03 13:28S 33°54' E 018°26'0 0.0
2018-Dec-03 12:58S 33°54' E 018°26'0 0.0
2018-Dec-03 12:28S 33°54' E 018°26'0 0.0
2018-Dec-03 11:58S 33°54' E 018°26'0 0.0
2018-Dec-03 11:28S 33°54' E 018°26'0 0.0
2018-Dec-03 10:58S 33°54' E 018°26'0 0.0
2018-Dec-03 10:22S 33°54' E 018°26'0 0.0
2018-Dec-03 09:58S 33°54' E 018°26'0 0.0
2018-Dec-03 09:28S 33°54' E 018°26'0 0.0
2018-Dec-03 08:58S 33°54' E 018°26'0 0.0
2018-Dec-03 08:28S 33°54' E 018°26'0 0.0
2018-Dec-03 07:58S 33°54' E 018°26'0 0.0
2018-Dec-03 07:28S 33°54' E 018°26'0 0.0
2018-Dec-03 06:58S 33°54' E 018°26'0 0.0
2018-Dec-03 06:28S 33°54' E 018°26'0 0.0
2018-Dec-03 05:58S 33°54' E 018°26'0 0.0
2018-Dec-03 05:28S 33°54' E 018°26'0 0.0
2018-Dec-03 04:58S 33°54' E 018°26'0 0.0
2018-Dec-03 04:28S 33°54' E 018°26'0 0.0
2018-Dec-03 03:58S 33°54' E 018°26'0 0.0
2018-Dec-03 03:28S 33°54' E 018°26'0 0.0
2018-Dec-03 02:58S 33°54' E 018°26'0 0.0
2018-Dec-03 02:28S 33°54' E 018°26'0 0.0
2018-Dec-03 01:58S 33°54' E 018°26'0 0.0
2018-Dec-03 01:28S 33°54' E 018°26'0 0.0
2018-Dec-03 00:58S 33°54' E 018°26'0 0.0
2018-Dec-03 00:28S 33°54' E 018°26'0 0.0
2018-Dec-02 23:58S 33°54' E 018°26'0 0.0
2018-Dec-02 23:28S 33°54' E 018°26'0 0.0
2018-Dec-02 22:58S 33°54' E 018°26'0 0.0
2018-Dec-02 22:28S 33°54' E 018°26'0 0.0
2018-Dec-02 21:58S 33°54' E 018°26'0 0.0
2018-Dec-02 21:28S 33°54' E 018°26'0 0.0
2018-Dec-02 20:58S 33°54' E 018°26'0 0.0
2018-Dec-02 20:28S 33°54' E 018°26'0 0.0
2018-Dec-02 19:58S 33°54' E 018°26'0 0.0
2018-Dec-02 19:28S 33°54' E 018°26'0 0.0
2018-Dec-02 18:58S 33°54' E 018°26'0 0.0
2018-Dec-02 18:28S 33°54' E 018°26'0 0.0
2018-Dec-02 17:58S 33°54' E 018°26'0 0.0
2018-Dec-02 17:28S 33°54' E 018°26'0 0.0
2018-Dec-02 16:58S 33°54' E 018°26'0 0.0
2018-Dec-02 16:28S 33°54' E 018°26'  

Dump ship's entire track history